sensor_id;sensor_type;location;lat;lon;timestamp;temperature;humidity
65369;HTU21D;51970;53.484;49.488;2023-08-30T00:00:55;12.28;72.53
65369;HTU21D;51970;53.484;49.488;2023-08-30T00:03:21;12.28;72.56
65369;HTU21D;51970;53.484;49.488;2023-08-30T00:05:48;12.21;72.95
65369;HTU21D;51970;53.484;49.488;2023-08-30T00:08:14;12.17;73.19
65369;HTU21D;51970;53.484;49.488;2023-08-30T00:10:48;12.11;73.54
65369;HTU21D;51970;53.484;49.488;2023-08-30T00:13:14;12.07;73.86
65369;HTU21D;51970;53.484;49.488;2023-08-30T00:15:40;12.06;74.03
65369;HTU21D;51970;53.484;49.488;2023-08-30T00:18:06;12.04;74.10
65369;HTU21D;51970;53.484;49.488;2023-08-30T00:20:32;12.00;74.35
65369;HTU21D;51970;53.484;49.488;2023-08-30T00:22:59;11.98;74.42
65369;HTU21D;51970;53.484;49.488;2023-08-30T00:25:25;11.90;74.63
65369;HTU21D;51970;53.484;49.488;2023-08-30T00:27:51;11.84;74.83
65369;HTU21D;51970;53.484;49.488;2023-08-30T00:30:18;11.75;75.02
65369;HTU21D;51970;53.484;49.488;2023-08-30T00:32:44;11.64;75.52
65369;HTU21D;51970;53.484;49.488;2023-08-30T00:35:10;11.55;75.91
65369;HTU21D;51970;53.484;49.488;2023-08-30T00:37:36;11.43;76.46
65369;HTU21D;51970;53.484;49.488;2023-08-30T00:40:02;11.38;76.69
65369;HTU21D;51970;53.484;49.488;2023-08-30T00:42:28;11.33;77.08
65369;HTU21D;51970;53.484;49.488;2023-08-30T00:44:54;11.29;77.17
65369;HTU21D;51970;53.484;49.488;2023-08-30T00:47:21;11.38;77.41
65369;HTU21D;51970;53.484;49.488;2023-08-30T00:49:47;11.41;77.18
65369;HTU21D;51970;53.484;49.488;2023-08-30T00:52:13;11.41;77.33
65369;HTU21D;51970;53.484;49.488;2023-08-30T00:54:40;11.36;77.27
65369;HTU21D;51970;53.484;49.488;2023-08-30T00:57:06;11.30;77.45
65369;HTU21D;51970;53.484;49.488;2023-08-30T00:59:33;11.17;77.96
65369;HTU21D;51970;53.484;49.488;2023-08-30T01:02:00;11.13;78.54
65369;HTU21D;51970;53.484;49.488;2023-08-30T01:04:30;11.11;78.20
65369;HTU21D;51970;53.484;49.488;2023-08-30T01:06:56;11.11;78.45
65369;HTU21D;51970;53.484;49.488;2023-08-30T01:09:23;11.05;78.60
65369;HTU21D;51970;53.484;49.488;2023-08-30T01:12:10;11.09;78.79
65369;HTU21D;51970;53.484;49.488;2023-08-30T01:15:10;11.11;79.20
65369;HTU21D;51970;53.484;49.488;2023-08-30T01:17:39;11.23;79.01
65369;HTU21D;51970;53.484;49.488;2023-08-30T01:20:08;11.30;78.50
65369;HTU21D;51970;53.484;49.488;2023-08-30T01:28:08;11.41;78.30
65369;HTU21D;51970;53.484;49.488;2023-08-30T01:30:37;11.36;78.13
65369;HTU21D;51970;53.484;49.488;2023-08-30T01:33:05;11.25;78.37
65369;HTU21D;51970;53.484;49.488;2023-08-30T01:35:35;11.14;78.96
65369;HTU21D;51970;53.484;49.488;2023-08-30T01:38:06;11.08;79.09
65369;HTU21D;51970;53.484;49.488;2023-08-30T01:40:37;11.12;79.68
65369;HTU21D;51970;53.484;49.488;2023-08-30T01:43:05;11.27;79.39
65369;HTU21D;51970;53.484;49.488;2023-08-30T01:45:38;11.49;78.64
65369;HTU21D;51970;53.484;49.488;2023-08-30T01:48:06;11.64;78.06
65369;HTU21D;51970;53.484;49.488;2023-08-30T01:50:33;11.68;77.79
65369;HTU21D;51970;53.484;49.488;2023-08-30T01:53:00;11.72;77.59
65369;HTU21D;51970;53.484;49.488;2023-08-30T01:55:28;11.72;77.47
65369;HTU21D;51970;53.484;49.488;2023-08-30T01:57:55;11.72;77.55
65369;HTU21D;51970;53.484;49.488;2023-08-30T02:00:21;11.74;77.62
65369;HTU21D;51970;53.484;49.488;2023-08-30T02:02:48;11.81;77.80
65369;HTU21D;51970;53.484;49.488;2023-08-30T02:05:14;11.86;77.84
65369;HTU21D;51970;53.484;49.488;2023-08-30T02:10:17;11.99;77.76
65369;HTU21D;51970;53.484;49.488;2023-08-30T02:12:50;12.05;77.68
65369;HTU21D;51970;53.484;49.488;2023-08-30T02:15:20;12.17;77.42
65369;HTU21D;51970;53.484;49.488;2023-08-30T02:17:47;12.33;76.94
65369;HTU21D;51970;53.484;49.488;2023-08-30T02:20:14;12.99;74.85
65369;HTU21D;51970;53.484;49.488;2023-08-30T02:22:40;13.66;71.93
65369;HTU21D;51970;53.484;49.488;2023-08-30T02:25:06;14.14;70.06
65369;HTU21D;51970;53.484;49.488;2023-08-30T02:27:34;14.48;68.81
65369;HTU21D;51970;53.484;49.488;2023-08-30T02:30:03;14.86;67.10
65369;HTU21D;51970;53.484;49.488;2023-08-30T02:32:30;14.80;67.55
65369;HTU21D;51970;53.484;49.488;2023-08-30T02:34:56;15.29;65.76
65369;HTU21D;51970;53.484;49.488;2023-08-30T02:37:22;15.61;64.46
65369;HTU21D;51970;53.484;49.488;2023-08-30T02:39:48;15.39;65.09
65369;HTU21D;51970;53.484;49.488;2023-08-30T02:42:15;14.83;67.09
65369;HTU21D;51970;53.484;49.488;2023-08-30T02:44:41;15.00;66.71
65369;HTU21D;51970;53.484;49.488;2023-08-30T02:47:07;15.07;66.49
65369;HTU21D;51970;53.484;49.488;2023-08-30T02:49:33;14.60;67.87
65369;HTU21D;51970;53.484;49.488;2023-08-30T02:51:59;13.83;70.99
65369;HTU21D;51970;53.484;49.488;2023-08-30T02:54:25;13.46;72.79
65369;HTU21D;51970;53.484;49.488;2023-08-30T02:56:51;13.48;72.93
65369;HTU21D;51970;53.484;49.488;2023-08-30T02:59:17;13.61;72.54
65369;HTU21D;51970;53.484;49.488;2023-08-30T03:01:43;14.32;70.39
65369;HTU21D;51970;53.484;49.488;2023-08-30T03:04:09;14.65;68.25
65369;HTU21D;51970;53.484;49.488;2023-08-30T03:06:35;14.04;70.73
65369;HTU21D;51970;53.484;49.488;2023-08-30T03:09:02;13.68;72.34
65369;HTU21D;51970;53.484;49.488;2023-08-30T03:11:32;13.58;72.79
65369;HTU21D;51970;53.484;49.488;2023-08-30T03:13:58;13.56;72.69
65369;HTU21D;51970;53.484;49.488;2023-08-30T03:16:24;13.56;72.69
65369;HTU21D;51970;53.484;49.488;2023-08-30T03:18:50;13.63;72.50
65369;HTU21D;51970;53.484;49.488;2023-08-30T03:21:16;13.63;72.45
65369;HTU21D;51970;53.484;49.488;2023-08-30T03:23:43;13.64;72.28
65369;HTU21D;51970;53.484;49.488;2023-08-30T03:26:15;13.73;72.16
65369;HTU21D;51970;53.484;49.488;2023-08-30T03:28:44;13.85;71.51
65369;HTU21D;51970;53.484;49.488;2023-08-30T03:31:19;13.98;71.00
65369;HTU21D;51970;53.484;49.488;2023-08-30T03:33:47;14.13;70.29
65369;HTU21D;51970;53.484;49.488;2023-08-30T03:36:15;14.20;70.16
65369;HTU21D;51970;53.484;49.488;2023-08-30T03:38:41;14.23;70.00
65369;HTU21D;51970;53.484;49.488;2023-08-30T03:41:10;14.15;70.26
65369;HTU21D;51970;53.484;49.488;2023-08-30T03:43:36;14.13;70.49
65369;HTU21D;51970;53.484;49.488;2023-08-30T03:46:02;14.17;70.37
65369;HTU21D;51970;53.484;49.488;2023-08-30T03:48:29;14.15;70.58
65369;HTU21D;51970;53.484;49.488;2023-08-30T03:50:56;14.18;70.61
65369;HTU21D;51970;53.484;49.488;2023-08-30T03:53:23;14.39;69.94
65369;HTU21D;51970;53.484;49.488;2023-08-30T03:55:49;14.54;69.44
65369;HTU21D;51970;53.484;49.488;2023-08-30T03:58:15;14.55;69.35
65369;HTU21D;51970;53.484;49.488;2023-08-30T04:00:41;14.44;69.86
65369;HTU21D;51970;53.484;49.488;2023-08-30T04:03:09;14.49;69.83
65369;HTU21D;51970;53.484;49.488;2023-08-30T04:05:38;14.69;69.10
65369;HTU21D;51970;53.484;49.488;2023-08-30T04:08:05;14.81;68.75
65369;HTU21D;51970;53.484;49.488;2023-08-30T04:10:36;14.99;68.20
65369;HTU21D;51970;53.484;49.488;2023-08-30T04:13:03;15.10;67.58
65369;HTU21D;51970;53.484;49.488;2023-08-30T04:15:32;15.19;67.36
65369;HTU21D;51970;53.484;49.488;2023-08-30T04:17:59;15.48;66.72
65369;HTU21D;51970;53.484;49.488;2023-08-30T04:20:26;15.69;65.72
65369;HTU21D;51970;53.484;49.488;2023-08-30T04:22:52;15.84;64.67
65369;HTU21D;51970;53.484;49.488;2023-08-30T04:25:20;16.01;64.24
65369;HTU21D;51970;53.484;49.488;2023-08-30T04:27:46;16.41;62.91
65369;HTU21D;51970;53.484;49.488;2023-08-30T04:30:13;16.51;61.79
65369;HTU21D;51970;53.484;49.488;2023-08-30T04:32:39;16.63;61.37
65369;HTU21D;51970;53.484;49.488;2023-08-30T04:35:06;16.54;60.91
65369;HTU21D;51970;53.484;49.488;2023-08-30T04:37:32;16.60;60.02
65369;HTU21D;51970;53.484;49.488;2023-08-30T04:39:58;16.56;60.36
65369;HTU21D;51970;53.484;49.488;2023-08-30T04:42:24;16.30;61.60
65369;HTU21D;51970;53.484;49.488;2023-08-30T04:44:51;16.44;61.80
65369;HTU21D;51970;53.484;49.488;2023-08-30T04:47:18;16.55;60.18
65369;HTU21D;51970;53.484;49.488;2023-08-30T04:49:44;16.41;60.45
65369;HTU21D;51970;53.484;49.488;2023-08-30T04:52:10;16.33;61.01
65369;HTU21D;51970;53.484;49.488;2023-08-30T04:54:36;16.63;60.14
65369;HTU21D;51970;53.484;49.488;2023-08-30T04:57:02;16.81;58.86
65369;HTU21D;51970;53.484;49.488;2023-08-30T04:59:28;16.71;59.26
65369;HTU21D;51970;53.484;49.488;2023-08-30T05:01:54;16.70;58.99
65369;HTU21D;51970;53.484;49.488;2023-08-30T05:04:20;16.94;57.90
65369;HTU21D;51970;53.484;49.488;2023-08-30T05:06:46;16.99;57.58
65369;HTU21D;51970;53.484;49.488;2023-08-30T05:09:12;17.11;56.61
65369;HTU21D;51970;53.484;49.488;2023-08-30T05:11:38;17.28;56.61
65369;HTU21D;51970;53.484;49.488;2023-08-30T05:14:04;17.35;56.35
65369;HTU21D;51970;53.484;49.488;2023-08-30T05:16:30;17.31;56.38
65369;HTU21D;51970;53.484;49.488;2023-08-30T05:18:56;17.38;55.52
65369;HTU21D;51970;53.484;49.488;2023-08-30T05:21:22;17.39;55.13
65369;HTU21D;51970;53.484;49.488;2023-08-30T05:23:48;17.31;55.52
65369;HTU21D;51970;53.484;49.488;2023-08-30T05:26:14;17.65;55.45
65369;HTU21D;51970;53.484;49.488;2023-08-30T05:28:42;17.70;54.20
65369;HTU21D;51970;53.484;49.488;2023-08-30T05:31:09;17.79;54.44
65369;HTU21D;51970;53.484;49.488;2023-08-30T05:33:35;17.84;54.81
65369;HTU21D;51970;53.484;49.488;2023-08-30T05:36:01;17.90;54.47
65369;HTU21D;51970;53.484;49.488;2023-08-30T05:38:29;17.98;53.97
65369;HTU21D;51970;53.484;49.488;2023-08-30T05:40:55;18.08;54.20
65369;HTU21D;51970;53.484;49.488;2023-08-30T05:43:21;18.21;52.66
65369;HTU21D;51970;53.484;49.488;2023-08-30T05:45:47;18.05;53.16
65369;HTU21D;51970;53.484;49.488;2023-08-30T05:48:13;18.02;53.64
65369;HTU21D;51970;53.484;49.488;2023-08-30T05:50:39;18.13;52.26
65369;HTU21D;51970;53.484;49.488;2023-08-30T05:53:06;17.81;53.36
65369;HTU21D;51970;53.484;49.488;2023-08-30T05:55:32;17.81;53.50
65369;HTU21D;51970;53.484;49.488;2023-08-30T05:57:58;18.00;53.16
65369;HTU21D;51970;53.484;49.488;2023-08-30T06:00:24;17.91;53.44
65369;HTU21D;51970;53.484;49.488;2023-08-30T06:02:52;17.82;53.88
65369;HTU21D;51970;53.484;49.488;2023-08-30T06:05:18;17.96;53.62
65369;HTU21D;51970;53.484;49.488;2023-08-30T06:07:44;18.08;51.86
65369;HTU21D;51970;53.484;49.488;2023-08-30T06:10:10;18.04;50.67
65369;HTU21D;51970;53.484;49.488;2023-08-30T06:12:36;18.07;50.88
65369;HTU21D;51970;53.484;49.488;2023-08-30T06:15:03;18.19;50.66
65369;HTU21D;51970;53.484;49.488;2023-08-30T06:17:29;18.14;49.98
65369;HTU21D;51970;53.484;49.488;2023-08-30T06:19:55;18.10;50.40
65369;HTU21D;51970;53.484;49.488;2023-08-30T06:22:21;18.25;50.27
65369;HTU21D;51970;53.484;49.488;2023-08-30T06:24:48;18.53;49.92
65369;HTU21D;51970;53.484;49.488;2023-08-30T06:27:14;18.72;47.94
65369;HTU21D;51970;53.484;49.488;2023-08-30T06:29:40;18.44;48.66
65369;HTU21D;51970;53.484;49.488;2023-08-30T06:32:07;18.50;48.41
65369;HTU21D;51970;53.484;49.488;2023-08-30T06:34:33;18.59;47.47
65369;HTU21D;51970;53.484;49.488;2023-08-30T06:36:59;18.68;47.08
65369;HTU21D;51970;53.484;49.488;2023-08-30T06:39:25;18.74;44.83
65369;HTU21D;51970;53.484;49.488;2023-08-30T06:41:51;18.61;45.49
65369;HTU21D;51970;53.484;49.488;2023-08-30T06:44:18;18.44;46.27
65369;HTU21D;51970;53.484;49.488;2023-08-30T06:46:44;18.42;46.57
65369;HTU21D;51970;53.484;49.488;2023-08-30T06:49:10;18.49;47.50
65369;HTU21D;51970;53.484;49.488;2023-08-30T06:51:37;18.70;47.44
65369;HTU21D;51970;53.484;49.488;2023-08-30T06:54:03;18.68;47.55
65369;HTU21D;51970;53.484;49.488;2023-08-30T06:56:29;18.53;46.82
65369;HTU21D;51970;53.484;49.488;2023-08-30T06:58:55;18.86;46.80
65369;HTU21D;51970;53.484;49.488;2023-08-30T07:01:21;18.82;46.45
65369;HTU21D;51970;53.484;49.488;2023-08-30T07:03:47;18.87;46.63
65369;HTU21D;51970;53.484;49.488;2023-08-30T07:06:15;18.72;47.11
65369;HTU21D;51970;53.484;49.488;2023-08-30T07:08:41;18.98;46.54
65369;HTU21D;51970;53.484;49.488;2023-08-30T07:11:07;19.14;46.07
65369;HTU21D;51970;53.484;49.488;2023-08-30T07:13:34;19.29;46.60
65369;HTU21D;51970;53.484;49.488;2023-08-30T07:16:00;19.58;46.01
65369;HTU21D;51970;53.484;49.488;2023-08-30T07:18:26;19.42;45.73
65369;HTU21D;51970;53.484;49.488;2023-08-30T07:20:52;18.92;47.02
65369;HTU21D;51970;53.484;49.488;2023-08-30T07:23:18;18.99;46.88
65369;HTU21D;51970;53.484;49.488;2023-08-30T07:25:44;19.13;45.88
65369;HTU21D;51970;53.484;49.488;2023-08-30T07:28:10;19.31;44.91
65369;HTU21D;51970;53.484;49.488;2023-08-30T07:30:37;19.17;45.35
65369;HTU21D;51970;53.484;49.488;2023-08-30T07:33:04;19.56;44.25
65369;HTU21D;51970;53.484;49.488;2023-08-30T07:35:31;19.44;44.40
65369;HTU21D;51970;53.484;49.488;2023-08-30T07:37:58;19.29;44.74
65369;HTU21D;51970;53.484;49.488;2023-08-30T07:40:24;19.22;44.77
65369;HTU21D;51970;53.484;49.488;2023-08-30T07:42:52;19.46;44.90
65369;HTU21D;51970;53.484;49.488;2023-08-30T07:45:18;19.76;43.64
65369;HTU21D;51970;53.484;49.488;2023-08-30T07:47:44;19.76;43.77
65369;HTU21D;51970;53.484;49.488;2023-08-30T07:50:10;20.01;43.00
65369;HTU21D;51970;53.484;49.488;2023-08-30T07:52:37;19.88;43.07
65369;HTU21D;51970;53.484;49.488;2023-08-30T07:55:03;20.01;43.02
65369;HTU21D;51970;53.484;49.488;2023-08-30T07:57:29;20.18;42.19
65369;HTU21D;51970;53.484;49.488;2023-08-30T07:59:56;19.67;43.12
65369;HTU21D;51970;53.484;49.488;2023-08-30T08:02:22;19.80;43.48
65369;HTU21D;51970;53.484;49.488;2023-08-30T08:04:48;20.13;42.48
65369;HTU21D;51970;53.484;49.488;2023-08-30T08:07:15;20.24;43.17
65369;HTU21D;51970;53.484;49.488;2023-08-30T08:09:41;20.26;41.76
65369;HTU21D;51970;53.484;49.488;2023-08-30T08:12:07;19.72;42.42
65369;HTU21D;51970;53.484;49.488;2023-08-30T08:14:34;19.99;42.36
65369;HTU21D;51970;53.484;49.488;2023-08-30T08:17:00;20.47;40.68
65369;HTU21D;51970;53.484;49.488;2023-08-30T08:19:26;20.29;40.68
65369;HTU21D;51970;53.484;49.488;2023-08-30T08:21:52;19.82;41.99
65369;HTU21D;51970;53.484;49.488;2023-08-30T08:24:20;19.35;43.23
65369;HTU21D;51970;53.484;49.488;2023-08-30T08:26:46;19.52;42.84
65369;HTU21D;51970;53.484;49.488;2023-08-30T08:29:13;20.07;41.51
65369;HTU21D;51970;53.484;49.488;2023-08-30T08:31:40;20.28;40.34
65369;HTU21D;51970;53.484;49.488;2023-08-30T08:34:11;20.58;39.84
65369;HTU21D;51970;53.484;49.488;2023-08-30T08:36:42;20.36;39.32
65369;HTU21D;51970;53.484;49.488;2023-08-30T08:39:08;20.09;40.17
65369;HTU21D;51970;53.484;49.488;2023-08-30T08:41:39;20.24;39.62
65369;HTU21D;51970;53.484;49.488;2023-08-30T08:44:05;20.43;38.83
65369;HTU21D;51970;53.484;49.488;2023-08-30T08:46:36;20.64;38.72
65369;HTU21D;51970;53.484;49.488;2023-08-30T08:49:12;20.26;38.65
65369;HTU21D;51970;53.484;49.488;2023-08-30T08:51:40;20.39;38.57
65369;HTU21D;51970;53.484;49.488;2023-08-30T08:54:06;20.48;38.56
65369;HTU21D;51970;53.484;49.488;2023-08-30T08:56:33;20.44;38.46
65369;HTU21D;51970;53.484;49.488;2023-08-30T08:59:00;20.47;37.18
65369;HTU21D;51970;53.484;49.488;2023-08-30T09:01:27;20.44;37.26
65369;HTU21D;51970;53.484;49.488;2023-08-30T09:03:53;20.18;36.35
65369;HTU21D;51970;53.484;49.488;2023-08-30T09:06:21;20.17;37.01
65369;HTU21D;51970;53.484;49.488;2023-08-30T09:08:47;20.17;36.57
65369;HTU21D;51970;53.484;49.488;2023-08-30T09:11:13;20.16;37.32
65369;HTU21D;51970;53.484;49.488;2023-08-30T09:13:39;20.24;36.96
65369;HTU21D;51970;53.484;49.488;2023-08-30T09:16:16;20.30;36.73
65369;HTU21D;51970;53.484;49.488;2023-08-30T09:18:43;20.50;36.36
65369;HTU21D;51970;53.484;49.488;2023-08-30T09:21:09;20.20;36.73
65369;HTU21D;51970;53.484;49.488;2023-08-30T09:23:36;20.16;36.64
65369;HTU21D;51970;53.484;49.488;2023-08-30T09:26:03;20.33;36.85
65369;HTU21D;51970;53.484;49.488;2023-08-30T09:28:29;20.53;36.17
65369;HTU21D;51970;53.484;49.488;2023-08-30T09:30:59;20.66;35.63
65369;HTU21D;51970;53.484;49.488;2023-08-30T09:33:33;20.47;35.89
65369;HTU21D;51970;53.484;49.488;2023-08-30T09:35:59;20.31;36.80
65369;HTU21D;51970;53.484;49.488;2023-08-30T09:38:25;20.43;34.95
65369;HTU21D;51970;53.484;49.488;2023-08-30T09:41:02;20.61;35.40
65369;HTU21D;51970;53.484;49.488;2023-08-30T09:43:28;20.44;35.01
65369;HTU21D;51970;53.484;49.488;2023-08-30T09:45:54;20.32;36.30
65369;HTU21D;51970;53.484;49.488;2023-08-30T09:48:28;20.51;35.47
65369;HTU21D;51970;53.484;49.488;2023-08-30T09:50:54;20.59;34.89
65369;HTU21D;51970;53.484;49.488;2023-08-30T09:53:21;20.70;34.20
65369;HTU21D;51970;53.484;49.488;2023-08-30T09:55:52;20.80;34.60
65369;HTU21D;51970;53.484;49.488;2023-08-30T09:58:20;20.88;33.89
65369;HTU21D;51970;53.484;49.488;2023-08-30T10:00:48;21.01;32.85
65369;HTU21D;51970;53.484;49.488;2023-08-30T10:03:15;20.77;32.96
65369;HTU21D;51970;53.484;49.488;2023-08-30T10:05:45;20.62;32.93
65369;HTU21D;51970;53.484;49.488;2023-08-30T10:08:14;20.90;33.57
65369;HTU21D;51970;53.484;49.488;2023-08-30T10:10:40;21.00;33.83
65369;HTU21D;51970;53.484;49.488;2023-08-30T10:13:06;21.01;33.60
65369;HTU21D;51970;53.484;49.488;2023-08-30T10:15:41;20.99;33.50
65369;HTU21D;51970;53.484;49.488;2023-08-30T10:18:10;20.85;33.51
65369;HTU21D;51970;53.484;49.488;2023-08-30T10:20:37;20.83;33.80
65369;HTU21D;51970;53.484;49.488;2023-08-30T10:23:04;20.83;33.42
65369;HTU21D;51970;53.484;49.488;2023-08-30T10:25:31;20.80;33.70
65369;HTU21D;51970;53.484;49.488;2023-08-30T10:27:58;20.69;33.62
65369;HTU21D;51970;53.484;49.488;2023-08-30T10:30:25;20.83;33.47
65369;HTU21D;51970;53.484;49.488;2023-08-30T10:32:52;20.60;33.77
65369;HTU21D;51970;53.484;49.488;2023-08-30T10:35:18;20.83;33.76
65369;HTU21D;51970;53.484;49.488;2023-08-30T10:37:55;21.00;33.68
65369;HTU21D;51970;53.484;49.488;2023-08-30T10:40:22;20.98;33.67
65369;HTU21D;51970;53.484;49.488;2023-08-30T10:43:04;20.99;33.60
65369;HTU21D;51970;53.484;49.488;2023-08-30T10:45:30;20.85;33.17
65369;HTU21D;51970;53.484;49.488;2023-08-30T10:47:57;21.00;33.06
65369;HTU21D;51970;53.484;49.488;2023-08-30T10:50:34;20.96;33.41
65369;HTU21D;51970;53.484;49.488;2023-08-30T10:53:00;21.23;33.47
65369;HTU21D;51970;53.484;49.488;2023-08-30T10:55:26;21.19;33.31
65369;HTU21D;51970;53.484;49.488;2023-08-30T10:58:03;21.06;33.72
65369;HTU21D;51970;53.484;49.488;2023-08-30T11:00:30;21.34;33.41
65369;HTU21D;51970;53.484;49.488;2023-08-30T11:02:57;21.49;33.03
65369;HTU21D;51970;53.484;49.488;2023-08-30T11:05:25;21.39;33.32
65369;HTU21D;51970;53.484;49.488;2023-08-30T11:07:52;21.01;34.07
65369;HTU21D;51970;53.484;49.488;2023-08-30T11:10:19;20.81;34.72
65369;HTU21D;51970;53.484;49.488;2023-08-30T11:12:45;21.05;34.74
65369;HTU21D;51970;53.484;49.488;2023-08-30T11:15:13;21.39;34.23
65369;HTU21D;51970;53.484;49.488;2023-08-30T11:17:45;21.61;33.86
65369;HTU21D;51970;53.484;49.488;2023-08-30T11:20:12;21.40;34.56
65369;HTU21D;51970;53.484;49.488;2023-08-30T11:22:45;21.49;33.94
65369;HTU21D;51970;53.484;49.488;2023-08-30T11:25:13;21.62;33.59
65369;HTU21D;51970;53.484;49.488;2023-08-30T11:27:39;21.75;32.48
65369;HTU21D;51970;53.484;49.488;2023-08-30T11:30:07;21.47;33.28
65369;HTU21D;51970;53.484;49.488;2023-08-30T11:32:35;21.30;33.70
65369;HTU21D;51970;53.484;49.488;2023-08-30T11:35:02;21.29;33.68
65369;HTU21D;51970;53.484;49.488;2023-08-30T11:37:29;21.52;33.77
65369;HTU21D;51970;53.484;49.488;2023-08-30T11:39:56;21.52;33.23
65369;HTU21D;51970;53.484;49.488;2023-08-30T11:42:22;21.47;33.28
65369;HTU21D;51970;53.484;49.488;2023-08-30T11:44:49;21.58;33.90
65369;HTU21D;51970;53.484;49.488;2023-08-30T11:47:19;21.65;33.99
65369;HTU21D;51970;53.484;49.488;2023-08-30T11:49:54;21.53;33.78
65369;HTU21D;51970;53.484;49.488;2023-08-30T11:52:21;21.33;34.12
65369;HTU21D;51970;53.484;49.488;2023-08-30T11:54:50;21.39;34.02
65369;HTU21D;51970;53.484;49.488;2023-08-30T11:57:16;21.22;34.23
65369;HTU21D;51970;53.484;49.488;2023-08-30T11:59:43;21.34;34.06
65369;HTU21D;51970;53.484;49.488;2023-08-30T12:02:09;20.95;34.76
65369;HTU21D;51970;53.484;49.488;2023-08-30T12:04:41;20.95;34.47
65369;HTU21D;51970;53.484;49.488;2023-08-30T12:07:08;20.88;34.64
65369;HTU21D;51970;53.484;49.488;2023-08-30T12:09:34;20.66;35.42
65369;HTU21D;51970;53.484;49.488;2023-08-30T12:12:09;20.54;35.54
65369;HTU21D;51970;53.484;49.488;2023-08-30T12:14:36;20.58;36.04
65369;HTU21D;51970;53.484;49.488;2023-08-30T12:17:03;21.05;35.21
65369;HTU21D;51970;53.484;49.488;2023-08-30T12:19:30;21.39;34.31
65369;HTU21D;51970;53.484;49.488;2023-08-30T12:22:05;21.33;34.55
65369;HTU21D;51970;53.484;49.488;2023-08-30T12:24:45;21.34;34.83
65369;HTU21D;51970;53.484;49.488;2023-08-30T12:27:14;21.64;34.58
65369;HTU21D;51970;53.484;49.488;2023-08-30T12:29:41;21.60;34.46
65369;HTU21D;51970;53.484;49.488;2023-08-30T12:32:08;21.68;34.61
65369;HTU21D;51970;53.484;49.488;2023-08-30T12:34:34;21.42;34.66
65369;HTU21D;51970;53.484;49.488;2023-08-30T12:37:01;21.45;35.13
65369;HTU21D;51970;53.484;49.488;2023-08-30T12:39:28;21.48;34.15
65369;HTU21D;51970;53.484;49.488;2023-08-30T12:41:54;21.20;35.02
65369;HTU21D;51970;53.484;49.488;2023-08-30T12:44:21;21.37;34.84
65369;HTU21D;51970;53.484;49.488;2023-08-30T12:46:47;21.52;34.58
65369;HTU21D;51970;53.484;49.488;2023-08-30T12:49:13;21.49;34.97
65369;HTU21D;51970;53.484;49.488;2023-08-30T12:51:39;21.58;35.15
65369;HTU21D;51970;53.484;49.488;2023-08-30T12:54:05;21.76;35.02
65369;HTU21D;51970;53.484;49.488;2023-08-30T12:56:31;21.58;34.79
65369;HTU21D;51970;53.484;49.488;2023-08-30T12:58:57;21.45;35.15
65369;HTU21D;51970;53.484;49.488;2023-08-30T13:01:23;21.30;35.53
65369;HTU21D;51970;53.484;49.488;2023-08-30T13:03:50;21.31;35.43
65369;HTU21D;51970;53.484;49.488;2023-08-30T13:06:16;21.37;35.25
65369;HTU21D;51970;53.484;49.488;2023-08-30T13:08:45;21.30;35.54
65369;HTU21D;51970;53.484;49.488;2023-08-30T13:11:11;21.34;35.53
65369;HTU21D;51970;53.484;49.488;2023-08-30T13:13:37;21.39;35.21
65369;HTU21D;51970;53.484;49.488;2023-08-30T13:16:03;21.29;35.50
65369;HTU21D;51970;53.484;49.488;2023-08-30T13:18:29;21.21;35.58
65369;HTU21D;51970;53.484;49.488;2023-08-30T13:20:55;21.11;35.98
65369;HTU21D;51970;53.484;49.488;2023-08-30T13:23:23;21.08;36.33
65369;HTU21D;51970;53.484;49.488;2023-08-30T13:25:49;21.19;36.15
65369;HTU21D;51970;53.484;49.488;2023-08-30T13:28:15;21.28;36.27
65369;HTU21D;51970;53.484;49.488;2023-08-30T13:30:46;21.19;36.44
65369;HTU21D;51970;53.484;49.488;2023-08-30T13:33:12;21.27;36.35
65369;HTU21D;51970;53.484;49.488;2023-08-30T13:35:41;21.04;36.22
65369;HTU21D;51970;53.484;49.488;2023-08-30T13:38:07;20.84;36.77
65369;HTU21D;51970;53.484;49.488;2023-08-30T13:40:33;20.74;37.08
65369;HTU21D;51970;53.484;49.488;2023-08-30T13:42:59;20.72;37.28
65369;HTU21D;51970;53.484;49.488;2023-08-30T13:45:25;20.88;37.21
65369;HTU21D;51970;53.484;49.488;2023-08-30T13:47:51;20.92;36.79
65369;HTU21D;51970;53.484;49.488;2023-08-30T13:50:19;20.90;37.03
65369;HTU21D;51970;53.484;49.488;2023-08-30T13:52:45;20.88;37.00
65369;HTU21D;51970;53.484;49.488;2023-08-30T13:55:11;20.85;37.13
65369;HTU21D;51970;53.484;49.488;2023-08-30T13:57:37;20.77;37.30
65369;HTU21D;51970;53.484;49.488;2023-08-30T14:00:03;20.68;37.50
65369;HTU21D;51970;53.484;49.488;2023-08-30T14:02:35;20.54;37.82
65369;HTU21D;51970;53.484;49.488;2023-08-30T14:05:02;20.41;38.10
65369;HTU21D;51970;53.484;49.488;2023-08-30T14:07:28;20.37;38.33
65369;HTU21D;51970;53.484;49.488;2023-08-30T14:09:54;20.37;38.30
65369;HTU21D;51970;53.484;49.488;2023-08-30T14:12:21;20.40;38.64
65369;HTU21D;51970;53.484;49.488;2023-08-30T14:14:47;20.41;38.75
65369;HTU21D;51970;53.484;49.488;2023-08-30T14:17:13;20.43;38.77
65369;HTU21D;51970;53.484;49.488;2023-08-30T14:19:39;20.36;38.69
65369;HTU21D;51970;53.484;49.488;2023-08-30T14:22:05;20.27;38.95
65369;HTU21D;51970;53.484;49.488;2023-08-30T14:24:32;20.20;39.04
65369;HTU21D;51970;53.484;49.488;2023-08-30T14:27:00;20.16;39.39
65369;HTU21D;51970;53.484;49.488;2023-08-30T14:29:26;20.16;39.49
65369;HTU21D;51970;53.484;49.488;2023-08-30T14:31:53;20.17;39.48
65369;HTU21D;51970;53.484;49.488;2023-08-30T14:34:22;20.12;39.64
65369;HTU21D;51970;53.484;49.488;2023-08-30T14:36:48;20.04;39.84
65369;HTU21D;51970;53.484;49.488;2023-08-30T14:39:14;20.00;40.18
65369;HTU21D;51970;53.484;49.488;2023-08-30T14:41:40;19.95;40.10
65369;HTU21D;51970;53.484;49.488;2023-08-30T14:44:07;19.89;40.33
65369;HTU21D;51970;53.484;49.488;2023-08-30T14:46:33;19.87;40.34
65369;HTU21D;51970;53.484;49.488;2023-08-30T14:49:00;19.87;40.40
65369;HTU21D;51970;53.484;49.488;2023-08-30T14:51:26;19.86;40.47
65369;HTU21D;51970;53.484;49.488;2023-08-30T14:53:52;19.81;40.66
65369;HTU21D;51970;53.484;49.488;2023-08-30T14:56:18;19.77;40.84
65369;HTU21D;51970;53.484;49.488;2023-08-30T14:58:44;19.76;40.96
65369;HTU21D;51970;53.484;49.488;2023-08-30T15:01:15;19.74;41.01
65369;HTU21D;51970;53.484;49.488;2023-08-30T15:03:42;19.69;40.99
65369;HTU21D;51970;53.484;49.488;2023-08-30T15:06:08;19.68;41.14
65369;HTU21D;51970;53.484;49.488;2023-08-30T15:08:34;19.62;41.32
65369;HTU21D;51970;53.484;49.488;2023-08-30T15:11:00;19.60;41.55